Buena Vista, CO

3:41 AM MDT on September 19, 2014 (GMT -0600)
Lake County | Change Station
CLOSE
Current Station
Airport
Location: Leadville,
Elevation: 9928 ft
Nearby Weather Stations

Elev 9928 ft 39.23 °N, 106.32 °W | Updated 48 minutes ago

Clear
Clear
40 °F
Feels Like 37 °F
N
5
Wind Variable Wind from NE

Today
High -- | Low -- °F
--% Chance of Precip.
Yesterday
High -- | Low -- °F
Precip. -- in
6:49 AM 7:06 PM
Waning Crescent, 20% visible
Pressure 29.85 in
Visibility 10.0 miles
Clouds Clear
Windchill 37 °F
Dew Point 26 °F
Humidity 58%
Rainfall 0.00 in
Snow Depth 0 in , 0 in , 1 in
UV 0 out of 12
Pollen 6.00 out of 12
Air Quality Not available.
Flu Activity Not available.
METAR KLXV 190853Z AUTO 04004KT 10SM CLR 04/M03 A3034 RMK AO2 SLP107 T00441033 58001

More Conditions Fewer Conditions

Pressure 29.85 in
Visibility 10.0 miles
Clouds Clear
Windchill 37 °F
Dew Point 26 °F
Humidity 58%
Rainfall 0.00 in
Snow Depth 0 in , 0 in , 1 in
UV 0 out of 12
Pollen 6.00 out of 12
Air Quality Not available.
Flu Activity Not available.
METAR KLXV 190853Z AUTO 04004KT 10SM CLR 04/M03 A3034 RMK AO2 SLP107 T00441033 58001

More Conditions Fewer Conditions

10-Day Weather Forecast

Almanac

Astronomy

Sep. 19, 2014 Rise Set
Actual Time 6:49 AM MDT 7:06 PM MDT
Civil Twilight 6:23 AM MDT 7:32 PM MDT
Nautical Twilight 5:51 AM MDT 8:04 PM MDT
Astronomical Twilight 5:19 AM MDT 8:35 PM MDT
Moon 2:39 AM MDT 4:35 PM MDT
Length of Visible Light 13h 09m
Length of Day
12h 16m
Tomorrow will be 2m 30s shorter.
Waning Crescent, 20% of the Moon is Illuminated
Today
Waning Crescent
Sep 24
New
Oct 1
First Quarter
Oct 8
Full
Oct 15
Last Quarter

Today's Extremes

State Highs State Lows

Community

WunderPhotos

Upload Photos

1,754,583 photos uploaded!

Nearby

Snow Depth

Station Depth Elevation
Wild Basin 0 in 9560 ft
Jones Pass 0 in 10400 ft
Grayback 1 in 11620 ft
North Lost Trail 0 in 9200 ft
Dry Lake 0 in 8400 ft

Earthquake Activity

City Distance Mag. Time & Date
No recent earthquake activity has been reported nearby.
Minimum magnitude displayed is 2.5.

Coastal Water Temperatures

Place Temperature
No Stations Reporting

Nearby Weather Stations